createdAt,value
2018-09-04T00:02:12.696Z,10.80
2018-09-04T00:04:47.092Z,12.30
2018-09-04T00:07:22.743Z,13.80
2018-09-04T00:09:56.975Z,10.87
2018-09-04T00:12:31.343Z,12.30
2018-09-04T00:15:05.584Z,10.87
2018-09-04T00:17:39.892Z,10.70
2018-09-04T00:20:14.183Z,11.77
2018-09-04T00:22:48.624Z,10.87
2018-09-04T00:25:22.819Z,10.90
2018-09-04T00:27:57.076Z,10.03
2018-09-04T00:30:31.339Z,12.30
2018-09-04T00:33:05.493Z,10.87
2018-09-04T00:35:39.788Z,11.07
2018-09-04T00:38:14.116Z,9.77
2018-09-04T00:40:48.315Z,10.17
2018-09-04T00:43:23.096Z,11.87
2018-09-04T00:45:57.556Z,11.80
2018-09-04T00:48:31.904Z,10.20
2018-09-04T00:51:06.223Z,11.87
2018-09-04T00:53:40.528Z,10.93
2018-09-04T00:56:14.795Z,11.13
2018-09-04T00:58:49.092Z,10.23
2018-09-04T01:01:23.400Z,10.20
2018-09-04T01:03:57.763Z,10.40
2018-09-04T01:06:32.216Z,10.87
2018-09-04T01:09:07.248Z,11.07
2018-09-04T01:11:41.588Z,12.20
2018-09-04T01:14:15.801Z,9.43
2018-09-04T01:16:50.049Z,10.83
2018-09-04T01:19:24.336Z,10.83
2018-09-04T01:21:58.654Z,11.87
2018-09-04T01:24:33.048Z,11.40
2018-09-04T01:27:07.340Z,9.43
2018-09-04T01:29:41.679Z,11.50
2018-09-04T01:32:17.043Z,11.37
2018-09-04T01:34:51.266Z,11.97
2018-09-04T01:37:25.613Z,11.17
2018-09-04T01:39:59.898Z,9.93
2018-09-04T01:42:34.455Z,11.57
2018-09-04T01:45:08.645Z,10.47
2018-09-04T01:47:42.924Z,11.30
2018-09-04T01:50:17.228Z,9.93
2018-09-04T01:52:51.455Z,10.93
2018-09-04T01:55:25.766Z,12.17
2018-09-04T01:58:00.220Z,9.73
2018-09-04T02:00:34.496Z,9.80
2018-09-04T02:03:08.704Z,11.27
2018-09-04T02:05:43.300Z,11.23
2018-09-04T02:08:17.622Z,11.07
2018-09-04T02:10:51.812Z,10.27
2018-09-04T02:13:26.107Z,11.23
2018-09-04T02:16:00.396Z,10.77
2018-09-04T02:18:34.703Z,10.37
2018-09-04T02:21:09.068Z,10.00
2018-09-04T02:23:43.379Z,11.27
2018-09-04T02:26:17.640Z,12.43
2018-09-04T02:28:51.832Z,10.53
2018-09-04T02:31:26.172Z,11.10
2018-09-04T02:34:00.336Z,9.53
2018-09-04T02:36:34.705Z,13.10
2018-09-04T02:39:10.100Z,9.63
2018-09-04T02:41:44.343Z,10.50
2018-09-04T02:44:18.608Z,9.87
2018-09-04T02:46:52.924Z,10.60
2018-09-04T02:49:27.218Z,10.57
2018-09-04T02:52:01.448Z,9.40
2018-09-04T02:54:35.684Z,9.67
2018-09-04T02:57:09.961Z,8.77
2018-09-04T02:59:44.088Z,10.57
2018-09-04T03:02:18.374Z,9.10
2018-09-04T03:04:52.671Z,11.10
2018-09-04T03:07:26.977Z,9.50
2018-09-04T03:10:01.329Z,9.70
2018-09-04T03:12:35.599Z,9.00
2018-09-04T03:15:09.880Z,10.17
2018-09-04T03:17:44.204Z,9.50
2018-09-04T03:20:18.635Z,9.73
2018-09-04T03:22:53.395Z,10.33
2018-09-04T03:25:27.547Z,11.43
2018-09-04T03:28:01.845Z,11.90
2018-09-04T03:30:36.176Z,9.03
2018-09-04T03:33:10.461Z,9.93
2018-09-04T03:35:44.743Z,9.37
2018-09-04T03:38:19.084Z,9.47
2018-09-04T03:40:53.528Z,9.90
2018-09-04T03:43:27.708Z,10.53
2018-09-04T03:46:01.903Z,12.33
2018-09-04T03:48:36.233Z,9.30
2018-09-04T03:51:10.535Z,9.47
2018-09-04T03:53:44.834Z,9.20
2018-09-04T03:56:19.132Z,8.77
2018-09-04T03:58:53.468Z,10.63
2018-09-04T04:01:27.762Z,9.97
2018-09-04T04:04:02.028Z,11.03
2018-09-04T04:06:36.337Z,9.47
2018-09-04T04:09:11.432Z,8.60
2018-09-04T04:11:45.643Z,9.87
2018-09-04T04:14:19.932Z,9.87
2018-09-04T04:16:54.256Z,8.97
2018-09-04T04:19:28.580Z,9.30
2018-09-04T04:22:03.031Z,10.43
2018-09-04T04:24:40.887Z,10.17
2018-09-04T04:27:15.326Z,10.60
2018-09-04T04:29:49.688Z,9.37
2018-09-04T04:32:24.716Z,10.17
2018-09-04T04:34:58.868Z,11.73
2018-09-04T04:37:33.215Z,9.37
2018-09-04T04:40:07.603Z,8.47
2018-09-04T04:42:41.820Z,10.63
2018-09-04T04:45:16.136Z,10.17
2018-09-04T04:47:50.373Z,13.03
2018-09-04T04:50:24.668Z,9.77
2018-09-04T04:52:58.883Z,10.07
2018-09-04T04:55:33.171Z,10.00
2018-09-04T04:58:07.576Z,10.20
2018-09-04T05:00:41.838Z,11.07
2018-09-04T05:03:16.063Z,9.83
2018-09-04T05:05:51.043Z,9.60
2018-09-04T05:08:25.223Z,9.33
2018-09-04T05:10:59.542Z,10.10
2018-09-04T05:13:33.820Z,9.80
2018-09-04T05:16:08.008Z,14.37
2018-09-04T05:18:42.404Z,9.13
2018-09-04T05:21:16.692Z,10.60
2018-09-04T05:23:51.048Z,10.67
2018-09-04T05:26:25.215Z,13.40
2018-09-04T05:28:59.567Z,13.23
2018-09-04T05:31:38.192Z,9.87
2018-09-04T05:34:12.349Z,10.20
2018-09-04T05:36:46.755Z,11.13
2018-09-04T05:39:21.008Z,8.50
2018-09-04T05:41:59.659Z,11.17
2018-09-04T05:44:33.956Z,10.50
2018-09-04T05:47:08.172Z,11.43
2018-09-04T05:49:42.476Z,10.40
2018-09-04T05:52:16.812Z,9.93
2018-09-04T05:54:51.032Z,10.07
2018-09-04T05:57:25.345Z,9.77
2018-09-04T05:59:59.748Z,8.90
2018-09-04T06:02:33.950Z,36.97
2018-09-04T06:05:08.304Z,40.43
2018-09-04T06:07:43.191Z,52.13
2018-09-04T06:10:17.520Z,45.43
2018-09-04T06:12:51.909Z,44.67
2018-09-04T06:15:26.204Z,46.30
2018-09-04T06:18:00.554Z,47.27
2018-09-04T06:20:34.788Z,47.47
2018-09-04T06:23:09.013Z,47.23
2018-09-04T06:25:43.334Z,44.90
2018-09-04T06:28:17.524Z,46.43
2018-09-04T06:30:51.870Z,47.73
2018-09-04T06:33:26.176Z,50.33
2018-09-04T06:36:00.464Z,45.00
2018-09-04T06:38:34.688Z,50.60
2018-09-04T06:41:09.008Z,51.83
2018-09-04T06:43:43.350Z,38.53
2018-09-04T06:46:17.668Z,53.27
2018-09-04T06:48:52.000Z,49.20
2018-09-04T06:51:26.423Z,54.37
2018-09-04T06:54:00.792Z,30.07
2018-09-04T06:56:35.120Z,44.83
2018-09-04T06:59:09.460Z,28.40
2018-09-04T07:01:43.779Z,28.97
2018-09-04T07:04:18.134Z,53.07
2018-09-04T07:06:52.468Z,53.87
2018-09-04T07:09:26.813Z,34.73
2018-09-04T07:12:01.068Z,37.73
2018-09-04T07:14:35.328Z,52.23
2018-09-04T07:17:09.709Z,57.13
2018-09-04T07:19:44.177Z,33.87
2018-09-04T07:22:18.492Z,49.60
2018-09-04T07:24:52.690Z,50.00
2018-09-04T07:27:27.056Z,53.53
2018-09-04T07:30:01.398Z,51.90
2018-09-04T07:32:35.651Z,53.70
2018-09-04T07:35:09.968Z,61.13
2018-09-04T07:37:44.198Z,59.40
2018-09-04T07:40:18.503Z,59.23
2018-09-04T07:42:52.764Z,58.00
2018-09-04T07:45:27.020Z,58.47
2018-09-04T07:48:01.353Z,59.03
2018-09-04T07:50:35.708Z,59.47
2018-09-04T07:53:10.028Z,62.67
2018-09-04T07:55:44.312Z,52.20
2018-09-04T07:58:18.626Z,52.90
2018-09-04T08:00:53.033Z,58.70
2018-09-04T08:03:27.417Z,58.30
2018-09-04T08:06:01.752Z,55.97
2018-09-04T08:08:36.455Z,57.97
2018-09-04T08:11:10.780Z,62.03
2018-09-04T08:13:45.156Z,55.50
2018-09-04T08:16:19.382Z,60.97
2018-09-04T08:18:53.780Z,55.80
2018-09-04T08:21:28.244Z,56.30
2018-09-04T08:24:03.528Z,56.70
2018-09-04T08:26:37.783Z,53.03
2018-09-04T08:29:12.223Z,55.73
2018-09-04T08:31:46.518Z,54.77
2018-09-04T08:34:20.860Z,54.37
2018-09-04T08:36:55.169Z,55.73
2018-09-04T08:39:29.495Z,58.13
2018-09-04T08:42:03.840Z,56.90
2018-09-04T08:44:38.164Z,43.17
2018-09-04T08:47:12.368Z,43.87
2018-09-04T08:49:46.669Z,51.27
2018-09-04T08:52:20.908Z,57.87
2018-09-04T08:54:55.529Z,59.97
2018-09-04T08:57:29.685Z,58.70
2018-09-04T09:00:04.028Z,57.17
2018-09-04T09:02:38.347Z,53.90
2018-09-04T09:05:12.657Z,55.73
2018-09-04T09:07:47.079Z,50.70
2018-09-04T09:10:21.391Z,43.00
2018-09-04T09:12:55.599Z,41.43
2018-09-04T09:15:29.981Z,33.00
2018-09-04T09:18:04.190Z,47.33
2018-09-04T09:20:38.360Z,44.47
2018-09-04T09:23:12.807Z,51.10
2018-09-04T09:25:47.181Z,45.33
2018-09-04T09:28:21.528Z,44.17
2018-09-04T09:30:55.844Z,37.47
2018-09-04T09:33:30.128Z,42.07
2018-09-04T09:36:04.465Z,44.30
2018-09-04T09:38:38.732Z,35.20
2018-09-04T09:41:13.075Z,35.47
2018-09-04T09:43:47.424Z,38.37
2018-09-04T09:46:22.199Z,42.57
2018-09-04T09:48:56.652Z,39.87
2018-09-04T09:51:31.020Z,38.50
2018-09-04T09:54:05.506Z,28.43
2018-09-04T09:56:39.757Z,27.77
2018-09-04T09:59:14.084Z,27.83
2018-09-04T10:01:57.452Z,30.83
2018-09-04T10:04:31.746Z,26.30
2018-09-04T10:07:06.215Z,39.50
2018-09-04T10:12:39.499Z,38.07
2018-09-04T10:15:13.817Z,30.10
2018-09-04T10:17:48.212Z,32.33
2018-09-04T10:20:22.440Z,35.93
2018-09-04T10:22:56.624Z,36.90
2018-09-04T10:25:30.896Z,23.07
2018-09-04T10:28:05.240Z,33.50
2018-09-04T10:30:39.576Z,40.83
2018-09-04T10:33:14.033Z,26.07
2018-09-04T10:35:48.213Z,19.60
2018-09-04T10:38:26.476Z,23.50
2018-09-04T10:41:01.800Z,21.20
2018-09-04T10:43:36.000Z,18.17
2018-09-04T10:46:11.768Z,23.27
2018-09-04T10:48:46.008Z,29.53
2018-09-04T10:51:20.280Z,23.87
2018-09-04T10:53:54.691Z,19.30
2018-09-04T10:56:28.920Z,19.63
2018-09-04T10:59:03.338Z,20.53
2018-09-04T11:01:37.573Z,33.90
2018-09-04T11:04:11.880Z,41.60
2018-09-04T11:06:46.209Z,21.97
2018-09-04T11:09:20.611Z,18.50
2018-09-04T11:11:54.872Z,18.87
2018-09-04T11:14:29.175Z,25.27
2018-09-04T11:17:03.528Z,25.47
2018-09-04T11:19:37.942Z,21.90
2018-09-04T11:22:12.195Z,23.03
2018-09-04T11:24:46.496Z,23.60
2018-09-04T11:27:20.872Z,21.30
2018-09-04T11:29:55.051Z,19.37
2018-09-04T11:32:29.376Z,21.33
2018-09-04T11:35:03.702Z,21.53
2018-09-04T11:37:37.940Z,23.07
2018-09-04T11:40:12.285Z,34.43
2018-09-04T11:42:46.672Z,28.90
2018-09-04T11:45:20.926Z,36.90
2018-09-04T11:47:55.245Z,35.60
2018-09-04T11:50:29.724Z,24.93
2018-09-04T11:53:04.049Z,26.20
2018-09-04T11:55:38.409Z,36.37
2018-09-04T11:58:12.628Z,36.40
2018-09-04T12:00:48.020Z,24.97
2018-09-04T12:03:22.226Z,36.47
2018-09-04T12:05:56.477Z,40.87
2018-09-04T12:08:30.657Z,29.20
2018-09-04T12:11:04.996Z,30.37
2018-09-04T12:13:39.273Z,28.33
2018-09-04T12:16:13.692Z,19.63
2018-09-04T12:18:47.928Z,19.30
2018-09-04T12:21:22.286Z,27.53
2018-09-04T12:23:56.555Z,26.10
2018-09-04T12:26:30.860Z,26.03
2018-09-04T12:29:05.351Z,29.10
2018-09-04T12:31:39.577Z,26.17
2018-09-04T12:34:13.891Z,25.83
2018-09-04T12:36:48.203Z,24.80
2018-09-04T12:39:22.416Z,25.43
2018-09-04T12:41:56.640Z,21.33
2018-09-04T12:44:30.969Z,18.60
2018-09-04T12:47:05.608Z,18.07
2018-09-04T12:49:39.968Z,20.77
2018-09-04T12:52:14.370Z,23.67
2018-09-04T12:54:48.646Z,15.57
2018-09-04T12:57:22.920Z,22.73
2018-09-04T12:59:57.189Z,19.07
2018-09-04T13:02:44.167Z,21.37
2018-09-04T13:05:18.732Z,22.43
2018-09-04T13:07:52.994Z,18.67
2018-09-04T13:10:27.667Z,24.33
2018-09-04T13:13:01.924Z,22.87
2018-09-04T13:15:36.160Z,21.30
2018-09-04T13:18:10.476Z,19.80
2018-09-04T13:20:44.823Z,21.13
2018-09-04T13:23:18.991Z,23.37
2018-09-04T13:25:53.763Z,24.03
2018-09-04T13:28:28.547Z,22.20
2018-09-04T13:31:02.701Z,22.47
2018-09-04T13:33:37.067Z,17.70
2018-09-04T13:36:11.340Z,21.30
2018-09-04T13:38:45.623Z,18.50
2018-09-04T13:41:19.816Z,22.90
2018-09-04T13:43:54.068Z,19.13
2018-09-04T13:46:28.381Z,18.23
2018-09-04T13:49:02.671Z,19.03
2018-09-04T13:51:37.786Z,24.63
2018-09-04T13:54:12.008Z,17.13
2018-09-04T13:56:46.364Z,19.93
2018-09-04T13:59:20.636Z,20.17
2018-09-04T14:01:54.948Z,23.17
2018-09-04T14:04:29.437Z,17.70
2018-09-04T14:07:03.659Z,17.10
2018-09-04T14:09:38.222Z,19.47
2018-09-04T14:12:12.836Z,13.50
2018-09-04T14:14:47.044Z,16.63
2018-09-04T14:17:21.501Z,19.80
2018-09-04T14:19:55.716Z,19.20
2018-09-04T14:22:30.139Z,15.80
2018-09-04T14:25:04.336Z,19.37
2018-09-04T14:27:38.673Z,15.23
2018-09-04T14:30:16.242Z,13.77
2018-09-04T14:32:47.273Z,19.40
2018-09-04T14:35:21.491Z,17.03
2018-09-04T14:37:55.832Z,18.23
2018-09-04T14:40:30.183Z,18.30
2018-09-04T14:43:04.521Z,23.27
2018-09-04T14:45:38.896Z,21.63
2018-09-04T14:48:13.205Z,19.83
2018-09-04T14:50:47.451Z,18.37
2018-09-04T14:53:21.792Z,24.67
2018-09-04T14:55:56.379Z,23.53
2018-09-04T14:58:30.729Z,23.80
2018-09-04T15:01:04.952Z,25.43
2018-09-04T15:03:39.199Z,23.67
2018-09-04T15:06:13.543Z,23.97
2018-09-04T15:08:47.764Z,25.00
2018-09-04T15:11:21.976Z,22.70
2018-09-04T15:13:56.292Z,24.27
2018-09-04T15:16:30.591Z,21.00
2018-09-04T15:19:05.148Z,27.40
2018-09-04T15:21:39.511Z,22.50
2018-09-04T15:24:13.885Z,19.03
2018-09-04T15:26:48.348Z,17.70
2018-09-04T15:29:22.639Z,17.50
2018-09-04T15:31:57.105Z,20.03
2018-09-04T15:34:31.456Z,15.97
2018-09-04T15:37:05.701Z,13.40
2018-09-04T15:39:39.983Z,13.37
2018-09-04T15:42:14.248Z,12.77
2018-09-04T15:44:48.568Z,16.87
2018-09-04T15:47:22.908Z,16.03
2018-09-04T15:49:57.172Z,16.67
2018-09-04T15:52:31.524Z,17.93
2018-09-04T15:55:05.860Z,15.93
2018-09-04T15:57:40.248Z,17.73
2018-09-04T16:00:14.448Z,17.40
2018-09-04T16:02:48.722Z,19.70
2018-09-04T16:05:23.259Z,16.73
2018-09-04T16:07:57.635Z,19.73
2018-09-04T16:10:31.927Z,17.30
2018-09-04T16:13:06.159Z,14.23
2018-09-04T16:15:40.584Z,15.03
2018-09-04T16:18:14.902Z,23.07
2018-09-04T16:20:49.447Z,17.00
2018-09-04T16:23:23.635Z,14.13
2018-09-04T16:25:58.137Z,13.33
2018-09-04T16:28:32.319Z,17.50
2018-09-04T16:31:06.535Z,12.97
2018-09-04T16:33:40.919Z,18.27
2018-09-04T16:36:15.124Z,11.97
2018-09-04T16:38:50.285Z,13.73
2018-09-04T16:41:24.509Z,23.53
2018-09-04T16:43:58.781Z,13.57
2018-09-04T16:46:33.408Z,13.10
2018-09-04T16:49:07.772Z,11.63
2018-09-04T16:51:42.224Z,11.93
2018-09-04T16:54:16.620Z,13.97
2018-09-04T16:56:50.955Z,10.53
2018-09-04T16:59:25.236Z,11.60
2018-09-04T17:01:59.408Z,12.73
2018-09-04T17:04:33.900Z,11.20
2018-09-04T17:07:08.224Z,10.83
2018-09-04T17:09:42.516Z,11.13
2018-09-04T17:12:16.871Z,11.57
2018-09-04T17:14:51.074Z,8.93
2018-09-04T17:17:25.379Z,10.53
2018-09-04T17:19:59.684Z,14.20
2018-09-04T17:22:34.044Z,10.70
2018-09-04T17:25:08.323Z,10.73
2018-09-04T17:27:42.640Z,13.20
2018-09-04T17:30:17.039Z,11.47
2018-09-04T17:32:52.024Z,11.43
2018-09-04T17:35:26.351Z,12.30
2018-09-04T17:38:00.669Z,12.00
2018-09-04T17:40:35.020Z,17.90
2018-09-04T17:43:09.336Z,13.60
2018-09-04T17:45:43.581Z,10.30
2018-09-04T17:48:17.793Z,10.60
2018-09-04T17:50:52.097Z,11.07
2018-09-04T17:53:26.443Z,10.50
2018-09-04T17:56:00.886Z,12.97
2018-09-04T17:58:35.231Z,15.33
2018-09-04T18:01:09.537Z,12.37
2018-09-04T18:03:43.855Z,10.00
2018-09-04T18:06:18.208Z,13.30
2018-09-04T18:08:52.404Z,9.03
2018-09-04T18:11:26.611Z,10.23
2018-09-04T18:14:01.016Z,9.20
2018-09-04T18:16:35.276Z,10.47
2018-09-04T18:19:09.624Z,11.17
2018-09-04T18:21:43.843Z,10.53
2018-09-04T18:24:18.526Z,9.53
2018-09-04T18:26:52.884Z,9.07
2018-09-04T18:29:27.216Z,8.50
2018-09-04T18:32:01.448Z,9.57
2018-09-04T18:34:35.829Z,10.73
2018-09-04T18:37:10.178Z,8.50
2018-09-04T18:39:44.479Z,8.63
2018-09-04T18:42:18.832Z,8.27
2018-09-04T18:44:53.098Z,8.07
2018-09-04T18:47:27.420Z,8.37
2018-09-04T18:50:01.978Z,9.10
2018-09-04T18:52:36.168Z,9.60
2018-09-04T18:55:10.469Z,7.83
2018-09-04T18:57:44.787Z,7.57
2018-09-04T19:00:19.163Z,9.50
2018-09-04T19:02:53.348Z,8.47
2018-09-04T19:05:27.598Z,8.30
2018-09-04T19:08:01.852Z,7.53
2018-09-04T19:10:36.166Z,10.20
2018-09-04T19:13:10.435Z,10.47
2018-09-04T19:15:44.724Z,9.67
2018-09-04T19:18:19.171Z,8.53
2018-09-04T19:20:53.628Z,9.30
2018-09-04T19:23:27.992Z,9.87
2018-09-04T19:26:02.284Z,8.80
2018-09-04T19:28:36.639Z,10.17
2018-09-04T19:31:10.852Z,9.03
2018-09-04T19:33:45.192Z,8.43
2018-09-04T19:36:19.500Z,8.67
2018-09-04T19:38:53.920Z,8.50
2018-09-04T19:41:28.484Z,11.00
2018-09-04T19:44:02.861Z,8.37
2018-09-04T19:46:37.123Z,12.20
2018-09-04T19:49:11.397Z,8.57
2018-09-04T19:51:45.681Z,7.83
2018-09-04T19:54:20.101Z,10.47
2018-09-04T19:56:54.331Z,8.53
2018-09-04T19:59:28.624Z,8.77
2018-09-04T20:02:03.204Z,9.30
2018-09-04T20:04:37.527Z,8.73
2018-09-04T20:07:11.828Z,10.23
2018-09-04T20:09:46.084Z,8.40
2018-09-04T20:12:20.359Z,8.30
2018-09-04T20:14:54.616Z,9.57
2018-09-04T20:17:28.876Z,9.60
2018-09-04T20:20:03.365Z,12.13
2018-09-04T20:22:37.624Z,10.43
2018-09-04T20:25:11.907Z,10.07
2018-09-04T20:27:46.244Z,9.40
2018-09-04T20:30:20.542Z,9.73
2018-09-04T20:32:54.754Z,10.27
2018-09-04T20:35:28.924Z,7.27
2018-09-04T20:38:03.249Z,10.87
2018-09-04T20:40:37.494Z,13.30
2018-09-04T20:43:11.803Z,10.30
2018-09-04T20:45:45.960Z,11.03
2018-09-04T20:48:20.279Z,8.23
2018-09-04T20:50:54.647Z,8.57
2018-09-04T20:53:29.036Z,13.57
2018-09-04T20:56:03.203Z,7.80
2018-09-04T20:58:48.783Z,8.87
2018-09-04T21:01:34.517Z,9.17
2018-09-04T21:04:20.232Z,8.87
2018-09-04T21:06:54.636Z,8.93
2018-09-04T21:09:39.443Z,8.67
2018-09-04T21:12:13.649Z,9.27
2018-09-04T21:14:47.949Z,13.90
2018-09-04T21:17:22.268Z,10.47
2018-09-04T21:19:56.592Z,9.67
2018-09-04T21:22:30.868Z,9.17
2018-09-04T21:25:05.891Z,8.93
2018-09-04T21:27:40.224Z,9.37
2018-09-04T21:30:14.580Z,9.90
2018-09-04T21:32:48.896Z,10.93
2018-09-04T21:35:23.404Z,8.13
2018-09-04T21:37:57.740Z,9.10
2018-09-04T21:40:31.921Z,11.70
2018-09-04T21:43:06.255Z,10.13
2018-09-04T21:45:40.600Z,8.80
2018-09-04T21:48:14.892Z,10.17
2018-09-04T21:50:49.136Z,10.70
2018-09-04T21:53:23.480Z,7.97
2018-09-04T21:55:57.740Z,10.33
2018-09-04T21:58:31.940Z,8.80
2018-09-04T22:01:06.313Z,10.87
2018-09-04T22:03:40.552Z,8.23
2018-09-04T22:06:14.739Z,7.90
2018-09-04T22:08:49.431Z,10.63
2018-09-04T22:11:23.807Z,8.50
2018-09-04T22:13:58.208Z,9.33
2018-09-04T22:16:32.600Z,9.00
2018-09-04T22:19:06.907Z,8.87
2018-09-04T22:21:41.280Z,9.73
2018-09-04T22:24:15.572Z,8.07
2018-09-04T22:26:49.941Z,8.73
2018-09-04T22:29:24.299Z,10.40
2018-09-04T22:31:58.492Z,7.80
2018-09-04T22:34:33.240Z,8.60
2018-09-04T22:37:07.608Z,7.93
2018-09-04T22:39:41.940Z,9.93
2018-09-04T22:42:16.144Z,7.63
2018-09-04T22:44:50.323Z,9.50
2018-09-04T22:47:24.664Z,7.90
2018-09-04T22:50:04.252Z,9.07
2018-09-04T22:52:38.486Z,9.33
2018-09-04T22:55:13.728Z,7.67
2018-09-04T22:57:48.239Z,8.43
2018-09-04T23:00:22.552Z,7.87
2018-09-04T23:02:56.915Z,8.73
2018-09-04T23:05:31.108Z,7.57
2018-09-04T23:08:05.451Z,10.23
2018-09-04T23:10:39.767Z,7.53
2018-09-04T23:13:14.081Z,7.70
2018-09-04T23:15:48.332Z,8.83
2018-09-04T23:18:22.672Z,9.17
2018-09-04T23:20:57.006Z,8.60
2018-09-04T23:23:31.439Z,7.93
2018-09-04T23:26:05.724Z,8.40
2018-09-04T23:28:40.020Z,8.50
2018-09-04T23:31:14.355Z,7.57
2018-09-04T23:33:48.705Z,9.20
2018-09-04T23:36:23.025Z,7.10
2018-09-04T23:38:57.245Z,8.37
2018-09-04T23:41:31.548Z,8.90
2018-09-04T23:44:06.081Z,9.53
2018-09-04T23:46:40.431Z,8.40
2018-09-04T23:49:14.859Z,7.57
2018-09-04T23:51:49.137Z,8.57
2018-09-04T23:54:23.760Z,9.43
2018-09-04T23:56:58.038Z,8.70
2018-09-04T23:59:32.324Z,8.43
